sensor_id;sensor_type;location;lat;lon;timestamp;P1;durP1;ratioP1;P2;durP2;ratioP2
11807;SDS011;5961;42.640;23.380;2023-08-06T00:02:04;4.10;;;3.10;;
11807;SDS011;5961;42.640;23.380;2023-08-06T00:04:31;3.30;;;3.00;;
11807;SDS011;5961;42.640;23.380;2023-08-06T00:06:59;4.70;;;2.97;;
11807;SDS011;5961;42.640;23.380;2023-08-06T00:09:26;3.20;;;2.90;;
11807;SDS011;5961;42.640;23.380;2023-08-06T00:11:52;4.78;;;3.30;;
11807;SDS011;5961;42.640;23.380;2023-08-06T00:14:19;4.70;;;3.33;;
11807;SDS011;5961;42.640;23.380;2023-08-06T00:16:46;4.77;;;3.40;;
11807;SDS011;5961;42.640;23.380;2023-08-06T00:19:12;4.45;;;3.30;;
11807;SDS011;5961;42.640;23.380;2023-08-06T00:21:39;6.03;;;3.37;;
11807;SDS011;5961;42.640;23.380;2023-08-06T00:24:07;3.77;;;3.23;;
11807;SDS011;5961;42.640;23.380;2023-08-06T00:26:34;3.97;;;2.97;;
11807;SDS011;5961;42.640;23.380;2023-08-06T00:29:01;3.20;;;2.90;;
11807;SDS011;5961;42.640;23.380;2023-08-06T00:31:27;3.60;;;3.30;;
11807;SDS011;5961;42.640;23.380;2023-08-06T00:33:54;3.30;;;3.10;;
11807;SDS011;5961;42.640;23.380;2023-08-06T00:36:21;4.57;;;3.33;;
11807;SDS011;5961;42.640;23.380;2023-08-06T00:38:47;4.10;;;3.58;;
11807;SDS011;5961;42.640;23.380;2023-08-06T00:41:16;4.45;;;3.15;;
11807;SDS011;5961;42.640;23.380;2023-08-06T00:43:42;5.53;;;3.67;;
11807;SDS011;5961;42.640;23.380;2023-08-06T00:46:09;3.33;;;3.03;;
11807;SDS011;5961;42.640;23.380;2023-08-06T00:48:36;3.63;;;3.03;;
11807;SDS011;5961;42.640;23.380;2023-08-06T00:51:03;3.97;;;3.03;;
11807;SDS011;5961;42.640;23.380;2023-08-06T00:53:30;3.92;;;3.42;;
11807;SDS011;5961;42.640;23.380;2023-08-06T00:55:57;3.70;;;3.30;;
11807;SDS011;5961;42.640;23.380;2023-08-06T00:58:26;3.58;;;2.80;;
11807;SDS011;5961;42.640;23.380;2023-08-06T01:00:52;3.97;;;3.28;;
11807;SDS011;5961;42.640;23.380;2023-08-06T01:03:19;3.33;;;3.00;;
11807;SDS011;5961;42.640;23.380;2023-08-06T01:05:46;4.90;;;3.63;;
11807;SDS011;5961;42.640;23.380;2023-08-06T01:08:16;3.38;;;3.08;;
11807;SDS011;5961;42.640;23.380;2023-08-06T01:10:57;4.70;;;3.08;;
11807;SDS011;5961;42.640;23.380;2023-08-06T01:13:41;4.00;;;3.25;;
11807;SDS011;5961;42.640;23.380;2023-08-06T01:16:11;3.30;;;3.00;;
11807;SDS011;5961;42.640;23.380;2023-08-06T01:18:41;3.65;;;3.35;;
11807;SDS011;5961;42.640;23.380;2023-08-06T01:21:12;3.30;;;3.00;;
11807;SDS011;5961;42.640;23.380;2023-08-06T01:23:39;4.43;;;3.30;;
11807;SDS011;5961;42.640;23.380;2023-08-06T01:26:10;3.75;;;3.30;;
11807;SDS011;5961;42.640;23.380;2023-08-06T01:28:44;4.25;;;3.58;;
11807;SDS011;5961;42.640;23.380;2023-08-06T01:31:18;4.68;;;3.47;;
11807;SDS011;5961;42.640;23.380;2023-08-06T01:33:48;3.67;;;3.38;;
11807;SDS011;5961;42.640;23.380;2023-08-06T01:36:18;3.72;;;3.42;;
11807;SDS011;5961;42.640;23.380;2023-08-06T01:38:46;3.88;;;3.38;;
11807;SDS011;5961;42.640;23.380;2023-08-06T01:41:13;4.90;;;3.22;;
11807;SDS011;5961;42.640;23.380;2023-08-06T01:43:40;3.40;;;3.10;;
11807;SDS011;5961;42.640;23.380;2023-08-06T01:46:06;3.40;;;3.10;;
11807;SDS011;5961;42.640;23.380;2023-08-06T01:48:33;3.80;;;3.50;;
11807;SDS011;5961;42.640;23.380;2023-08-06T01:50:59;3.33;;;3.10;;
11807;SDS011;5961;42.640;23.380;2023-08-06T01:53:28;4.22;;;3.65;;
11807;SDS011;5961;42.640;23.380;2023-08-06T01:55:54;4.30;;;3.78;;
11807;SDS011;5961;42.640;23.380;2023-08-06T01:58:21;5.45;;;4.07;;
11807;SDS011;5961;42.640;23.380;2023-08-06T02:00:48;4.13;;;3.70;;
11807;SDS011;5961;42.640;23.380;2023-08-06T02:03:14;4.80;;;3.75;;
11807;SDS011;5961;42.640;23.380;2023-08-06T02:05:41;4.30;;;3.83;;
11807;SDS011;5961;42.640;23.380;2023-08-06T02:08:08;4.32;;;3.92;;
11807;SDS011;5961;42.640;23.380;2023-08-06T02:10:36;3.92;;;3.58;;
11807;SDS011;5961;42.640;23.380;2023-08-06T02:13:03;3.85;;;3.55;;
11807;SDS011;5961;42.640;23.380;2023-08-06T02:15:29;4.78;;;4.20;;
11807;SDS011;5961;42.640;23.380;2023-08-06T02:17:56;4.82;;;4.30;;
11807;SDS011;5961;42.640;23.380;2023-08-06T02:20:23;4.85;;;4.38;;
11807;SDS011;5961;42.640;23.380;2023-08-06T02:22:49;4.97;;;4.50;;
11807;SDS011;5961;42.640;23.380;2023-08-06T02:25:16;4.30;;;3.87;;
11807;SDS011;5961;42.640;23.380;2023-08-06T02:27:44;6.23;;;4.20;;
11807;SDS011;5961;42.640;23.380;2023-08-06T02:30:11;4.63;;;3.97;;
11807;SDS011;5961;42.640;23.380;2023-08-06T02:32:37;4.20;;;3.80;;
11807;SDS011;5961;42.640;23.380;2023-08-06T02:35:04;5.17;;;3.80;;
11807;SDS011;5961;42.640;23.380;2023-08-06T02:37:32;3.77;;;3.40;;
11807;SDS011;5961;42.640;23.380;2023-08-06T02:39:59;3.70;;;3.40;;
11807;SDS011;5961;42.640;23.380;2023-08-06T02:42:27;5.83;;;3.90;;
11807;SDS011;5961;42.640;23.380;2023-08-06T02:44:55;4.60;;;3.60;;
11807;SDS011;5961;42.640;23.380;2023-08-06T02:47:21;4.07;;;3.67;;
11807;SDS011;5961;42.640;23.380;2023-08-06T02:49:48;3.80;;;3.50;;
11807;SDS011;5961;42.640;23.380;2023-08-06T02:52:15;3.87;;;3.30;;
11807;SDS011;5961;42.640;23.380;2023-08-06T02:54:42;4.63;;;3.50;;
11807;SDS011;5961;42.640;23.380;2023-08-06T02:57:09;4.20;;;3.50;;
11807;SDS011;5961;42.640;23.380;2023-08-06T02:59:35;3.73;;;3.37;;
11807;SDS011;5961;42.640;23.380;2023-08-06T03:02:04;3.40;;;3.10;;
11807;SDS011;5961;42.640;23.380;2023-08-06T03:04:31;3.80;;;3.40;;
11807;SDS011;5961;42.640;23.380;2023-08-06T03:06:58;3.80;;;3.40;;
11807;SDS011;5961;42.640;23.380;2023-08-06T03:09:24;3.47;;;3.17;;
11807;SDS011;5961;42.640;23.380;2023-08-06T03:11:51;3.53;;;3.07;;
11807;SDS011;5961;42.640;23.380;2023-08-06T03:14:17;3.70;;;3.20;;
11807;SDS011;5961;42.640;23.380;2023-08-06T03:16:44;4.97;;;3.40;;
11807;SDS011;5961;42.640;23.380;2023-08-06T03:19:12;3.50;;;3.20;;
11807;SDS011;5961;42.640;23.380;2023-08-06T03:21:39;3.58;;;3.20;;
11807;SDS011;5961;42.640;23.380;2023-08-06T03:24:05;4.30;;;3.80;;
11807;SDS011;5961;42.640;23.380;2023-08-06T03:26:32;6.13;;;3.80;;
11807;SDS011;5961;42.640;23.380;2023-08-06T03:28:59;5.97;;;3.63;;
11807;SDS011;5961;42.640;23.380;2023-08-06T03:31:26;3.70;;;3.27;;
11807;SDS011;5961;42.640;23.380;2023-08-06T03:33:52;3.40;;;3.10;;
11807;SDS011;5961;42.640;23.380;2023-08-06T03:36:20;3.73;;;3.37;;
11807;SDS011;5961;42.640;23.380;2023-08-06T03:38:47;4.80;;;3.50;;
11807;SDS011;5961;42.640;23.380;2023-08-06T03:41:14;5.23;;;3.77;;
11807;SDS011;5961;42.640;23.380;2023-08-06T03:43:40;3.97;;;3.67;;
11807;SDS011;5961;42.640;23.380;2023-08-06T03:46:07;6.93;;;3.90;;
11807;SDS011;5961;42.640;23.380;2023-08-06T03:48:34;4.77;;;3.37;;
11807;SDS011;5961;42.640;23.380;2023-08-06T03:51:00;6.27;;;3.47;;
11807;SDS011;5961;42.640;23.380;2023-08-06T03:53:28;3.83;;;3.42;;
11807;SDS011;5961;42.640;23.380;2023-08-06T03:55:55;4.17;;;3.40;;
11807;SDS011;5961;42.640;23.380;2023-08-06T03:58:25;5.47;;;3.97;;
11807;SDS011;5961;42.640;23.380;2023-08-06T04:00:57;6.80;;;3.72;;
11807;SDS011;5961;42.640;23.380;2023-08-06T04:03:24;4.93;;;3.57;;
11807;SDS011;5961;42.640;23.380;2023-08-06T04:05:51;4.73;;;3.90;;
11807;SDS011;5961;42.640;23.380;2023-08-06T04:08:17;5.13;;;4.00;;
11807;SDS011;5961;42.640;23.380;2023-08-06T04:10:48;5.07;;;3.67;;
11807;SDS011;5961;42.640;23.380;2023-08-06T04:13:15;4.47;;;3.87;;
11807;SDS011;5961;42.640;23.380;2023-08-06T04:15:42;6.20;;;3.60;;
11807;SDS011;5961;42.640;23.380;2023-08-06T04:18:09;6.87;;;3.80;;
11807;SDS011;5961;42.640;23.380;2023-08-06T04:20:42;4.18;;;3.65;;
11807;SDS011;5961;42.640;23.380;2023-08-06T04:23:10;4.47;;;3.47;;
11807;SDS011;5961;42.640;23.380;2023-08-06T04:25:36;6.80;;;3.08;;
11807;SDS011;5961;42.640;23.380;2023-08-06T04:28:05;5.18;;;3.45;;
11807;SDS011;5961;42.640;23.380;2023-08-06T04:30:33;3.60;;;3.25;;
11807;SDS011;5961;42.640;23.380;2023-08-06T04:33:00;5.60;;;3.30;;
11807;SDS011;5961;42.640;23.380;2023-08-06T04:35:26;3.80;;;3.45;;
11807;SDS011;5961;42.640;23.380;2023-08-06T04:37:53;3.90;;;3.03;;
11807;SDS011;5961;42.640;23.380;2023-08-06T04:40:20;4.67;;;3.70;;
11807;SDS011;5961;42.640;23.380;2023-08-06T04:42:46;4.30;;;3.60;;
11807;SDS011;5961;42.640;23.380;2023-08-06T04:45:15;5.95;;;4.07;;
11807;SDS011;5961;42.640;23.380;2023-08-06T04:47:41;3.95;;;3.42;;
11807;SDS011;5961;42.640;23.380;2023-08-06T04:50:08;5.90;;;3.50;;
11807;SDS011;5961;42.640;23.380;2023-08-06T04:52:35;3.88;;;3.20;;
11807;SDS011;5961;42.640;23.380;2023-08-06T04:55:03;3.80;;;3.42;;
11807;SDS011;5961;42.640;23.380;2023-08-06T04:57:31;3.75;;;3.45;;
11807;SDS011;5961;42.640;23.380;2023-08-06T04:59:58;3.60;;;3.30;;
11807;SDS011;5961;42.640;23.380;2023-08-06T05:02:26;3.47;;;3.17;;
11807;SDS011;5961;42.640;23.380;2023-08-06T05:04:52;4.32;;;3.28;;
11807;SDS011;5961;42.640;23.380;2023-08-06T05:07:19;3.90;;;3.10;;
11807;SDS011;5961;42.640;23.380;2023-08-06T05:09:46;3.70;;;3.30;;
11807;SDS011;5961;42.640;23.380;2023-08-06T05:12:13;3.78;;;3.38;;
11807;SDS011;5961;42.640;23.380;2023-08-06T05:14:39;3.95;;;3.63;;
11807;SDS011;5961;42.640;23.380;2023-08-06T05:17:06;3.97;;;3.28;;
11807;SDS011;5961;42.640;23.380;2023-08-06T05:19:34;4.32;;;3.92;;
11807;SDS011;5961;42.640;23.380;2023-08-06T05:22:00;4.53;;;4.13;;
11807;SDS011;5961;42.640;23.380;2023-08-06T05:24:27;6.40;;;5.63;;
11807;SDS011;5961;42.640;23.380;2023-08-06T05:26:54;5.68;;;5.18;;
11807;SDS011;5961;42.640;23.380;2023-08-06T05:29:21;6.00;;;4.70;;
11807;SDS011;5961;42.640;23.380;2023-08-06T05:31:47;4.95;;;4.35;;
11807;SDS011;5961;42.640;23.380;2023-08-06T05:34:14;4.97;;;4.47;;
11807;SDS011;5961;42.640;23.380;2023-08-06T05:36:42;5.57;;;4.60;;
11807;SDS011;5961;42.640;23.380;2023-08-06T05:39:09;5.00;;;4.50;;
11807;SDS011;5961;42.640;23.380;2023-08-06T05:41:35;7.82;;;5.00;;
11807;SDS011;5961;42.640;23.380;2023-08-06T05:44:02;5.78;;;4.88;;
11807;SDS011;5961;42.640;23.380;2023-08-06T05:46:29;7.63;;;4.88;;
11807;SDS011;5961;42.640;23.380;2023-08-06T05:48:55;6.22;;;5.43;;
11807;SDS011;5961;42.640;23.380;2023-08-06T05:51:22;8.88;;;6.07;;
11807;SDS011;5961;42.640;23.380;2023-08-06T05:53:50;8.20;;;7.30;;
11807;SDS011;5961;42.640;23.380;2023-08-06T05:56:17;8.52;;;7.65;;
11807;SDS011;5961;42.640;23.380;2023-08-06T05:58:43;9.25;;;8.07;;
11807;SDS011;5961;42.640;23.380;2023-08-06T06:01:11;9.15;;;7.57;;
11807;SDS011;5961;42.640;23.380;2023-08-06T06:03:38;8.95;;;8.07;;
11807;SDS011;5961;42.640;23.380;2023-08-06T06:06:05;8.60;;;7.68;;
11807;SDS011;5961;42.640;23.380;2023-08-06T06:08:31;8.05;;;6.93;;
11807;SDS011;5961;42.640;23.380;2023-08-06T06:11:00;7.60;;;5.72;;
11807;SDS011;5961;42.640;23.380;2023-08-06T06:13:27;5.63;;;5.13;;
11807;SDS011;5961;42.640;23.380;2023-08-06T06:15:54;5.70;;;4.70;;
11807;SDS011;5961;42.640;23.380;2023-08-06T06:18:21;5.20;;;4.70;;
11807;SDS011;5961;42.640;23.380;2023-08-06T06:20:48;7.43;;;5.07;;
11807;SDS011;5961;42.640;23.380;2023-08-06T06:23:14;5.63;;;5.13;;
11807;SDS011;5961;42.640;23.380;2023-08-06T06:25:42;5.03;;;4.55;;
11807;SDS011;5961;42.640;23.380;2023-08-06T06:28:11;5.80;;;5.28;;
11807;SDS011;5961;42.640;23.380;2023-08-06T06:30:37;6.43;;;5.82;;
11807;SDS011;5961;42.640;23.380;2023-08-06T06:33:04;6.40;;;5.18;;
11807;SDS011;5961;42.640;23.380;2023-08-06T06:35:31;6.35;;;4.93;;
11807;SDS011;5961;42.640;23.380;2023-08-06T06:37:57;5.47;;;3.60;;
11807;SDS011;5961;42.640;23.380;2023-08-06T06:40:25;3.55;;;3.25;;
11807;SDS011;5961;42.640;23.380;2023-08-06T06:42:51;4.22;;;3.83;;
11807;SDS011;5961;42.640;23.380;2023-08-06T06:45:19;5.22;;;3.50;;
11807;SDS011;5961;42.640;23.380;2023-08-06T06:47:46;4.95;;;3.40;;
11807;SDS011;5961;42.640;23.380;2023-08-06T06:50:13;3.72;;;3.20;;
11807;SDS011;5961;42.640;23.380;2023-08-06T06:52:41;3.97;;;3.67;;
11807;SDS011;5961;42.640;23.380;2023-08-06T06:55:08;3.90;;;3.55;;
11807;SDS011;5961;42.640;23.380;2023-08-06T06:57:34;5.28;;;3.55;;
11807;SDS011;5961;42.640;23.380;2023-08-06T07:00:01;3.25;;;2.95;;
11807;SDS011;5961;42.640;23.380;2023-08-06T07:02:30;3.80;;;3.50;;
11807;SDS011;5961;42.640;23.380;2023-08-06T07:04:56;5.75;;;3.70;;
11807;SDS011;5961;42.640;23.380;2023-08-06T07:07:23;5.82;;;3.70;;
11807;SDS011;5961;42.640;23.380;2023-08-06T07:09:50;5.22;;;4.13;;
11807;SDS011;5961;42.640;23.380;2023-08-06T07:12:16;5.95;;;5.35;;
11807;SDS011;5961;42.640;23.380;2023-08-06T07:14:43;6.55;;;5.90;;
11807;SDS011;5961;42.640;23.380;2023-08-06T07:17:10;7.18;;;6.50;;
11807;SDS011;5961;42.640;23.380;2023-08-06T07:19:38;7.13;;;6.43;;
11807;SDS011;5961;42.640;23.380;2023-08-06T07:22:05;7.15;;;6.35;;
11807;SDS011;5961;42.640;23.380;2023-08-06T07:24:32;7.40;;;6.53;;
11807;SDS011;5961;42.640;23.380;2023-08-06T07:26:59;6.70;;;5.95;;
11807;SDS011;5961;42.640;23.380;2023-08-06T07:29:26;4.40;;;3.90;;
11807;SDS011;5961;42.640;23.380;2023-08-06T07:31:53;4.72;;;4.22;;
11807;SDS011;5961;42.640;23.380;2023-08-06T07:34:20;4.90;;;4.50;;
11807;SDS011;5961;42.640;23.380;2023-08-06T07:36:48;4.60;;;3.83;;
11807;SDS011;5961;42.640;23.380;2023-08-06T07:39:15;5.45;;;3.90;;
11807;SDS011;5961;42.640;23.380;2023-08-06T07:41:42;5.05;;;3.55;;
11807;SDS011;5961;42.640;23.380;2023-08-06T07:44:10;3.95;;;3.65;;
11807;SDS011;5961;42.640;23.380;2023-08-06T07:46:37;3.90;;;3.30;;
11807;SDS011;5961;42.640;23.380;2023-08-06T07:49:04;5.20;;;3.30;;
11807;SDS011;5961;42.640;23.380;2023-08-06T07:51:31;3.63;;;3.33;;
11807;SDS011;5961;42.640;23.380;2023-08-06T07:53:59;3.95;;;3.20;;
11807;SDS011;5961;42.640;23.380;2023-08-06T07:56:25;3.90;;;3.58;;
11807;SDS011;5961;42.640;23.380;2023-08-06T07:58:52;3.92;;;3.60;;
11807;SDS011;5961;42.640;23.380;2023-08-06T08:01:19;4.07;;;3.50;;
11807;SDS011;5961;42.640;23.380;2023-08-06T08:03:45;4.22;;;3.70;;
11807;SDS011;5961;42.640;23.380;2023-08-06T08:06:12;4.35;;;3.30;;
11807;SDS011;5961;42.640;23.380;2023-08-06T08:08:39;6.05;;;4.28;;
11807;SDS011;5961;42.640;23.380;2023-08-06T08:11:07;4.43;;;3.80;;
11807;SDS011;5961;42.640;23.380;2023-08-06T08:13:34;4.28;;;3.78;;
11807;SDS011;5961;42.640;23.380;2023-08-06T08:16:00;3.92;;;3.53;;
11807;SDS011;5961;42.640;23.380;2023-08-06T08:18:28;4.07;;;3.65;;
11807;SDS011;5961;42.640;23.380;2023-08-06T08:20:56;4.95;;;3.55;;
11807;SDS011;5961;42.640;23.380;2023-08-06T08:23:22;4.35;;;3.75;;
11807;SDS011;5961;42.640;23.380;2023-08-06T08:25:49;3.65;;;3.35;;
11807;SDS011;5961;42.640;23.380;2023-08-06T08:28:17;4.15;;;3.75;;
11807;SDS011;5961;42.640;23.380;2023-08-06T08:30:44;6.25;;;4.18;;
11807;SDS011;5961;42.640;23.380;2023-08-06T08:33:11;6.25;;;3.67;;
11807;SDS011;5961;42.640;23.380;2023-08-06T08:35:37;4.43;;;4.03;;
11807;SDS011;5961;42.640;23.380;2023-08-06T08:38:05;4.20;;;3.90;;
11807;SDS011;5961;42.640;23.380;2023-08-06T08:40:32;4.43;;;4.00;;
11807;SDS011;5961;42.640;23.380;2023-08-06T08:43:01;4.40;;;4.00;;
11807;SDS011;5961;42.640;23.380;2023-08-06T08:45:30;4.45;;;4.05;;
11807;SDS011;5961;42.640;23.380;2023-08-06T08:48:01;5.38;;;3.80;;
11807;SDS011;5961;42.640;23.380;2023-08-06T08:50:27;3.80;;;3.50;;
11807;SDS011;5961;42.640;23.380;2023-08-06T08:52:55;5.35;;;3.63;;
11807;SDS011;5961;42.640;23.380;2023-08-06T08:55:22;5.25;;;3.47;;
11807;SDS011;5961;42.640;23.380;2023-08-06T08:57:49;4.25;;;3.83;;
11807;SDS011;5961;42.640;23.380;2023-08-06T09:00:16;4.78;;;3.70;;
11807;SDS011;5961;42.640;23.380;2023-08-06T09:02:44;4.28;;;3.65;;
11807;SDS011;5961;42.640;23.380;2023-08-06T09:05:12;5.38;;;3.80;;
11807;SDS011;5961;42.640;23.380;2023-08-06T09:07:41;5.63;;;3.95;;
11807;SDS011;5961;42.640;23.380;2023-08-06T09:10:10;5.35;;;3.60;;
11807;SDS011;5961;42.640;23.380;2023-08-06T09:12:38;3.97;;;3.67;;
11807;SDS011;5961;42.640;23.380;2023-08-06T09:15:06;3.95;;;3.50;;
11807;SDS011;5961;42.640;23.380;2023-08-06T09:17:33;3.67;;;3.33;;
11807;SDS011;5961;42.640;23.380;2023-08-06T09:20:09;5.28;;;3.40;;
11807;SDS011;5961;42.640;23.380;2023-08-06T09:22:37;3.53;;;3.22;;
11807;SDS011;5961;42.640;23.380;2023-08-06T09:25:04;6.15;;;3.97;;
11807;SDS011;5961;42.640;23.380;2023-08-06T09:27:35;4.93;;;3.42;;
11807;SDS011;5961;42.640;23.380;2023-08-06T09:30:02;4.03;;;3.60;;
11807;SDS011;5961;42.640;23.380;2023-08-06T09:32:36;4.30;;;3.90;;
11807;SDS011;5961;42.640;23.380;2023-08-06T09:35:16;3.80;;;3.40;;
11807;SDS011;5961;42.640;23.380;2023-08-06T09:37:43;3.67;;;3.40;;
11807;SDS011;5961;42.640;23.380;2023-08-06T09:40:26;4.38;;;3.22;;
11807;SDS011;5961;42.640;23.380;2023-08-06T09:42:54;3.58;;;3.28;;
11807;SDS011;5961;42.640;23.380;2023-08-06T09:45:20;3.58;;;3.28;;
11807;SDS011;5961;42.640;23.380;2023-08-06T09:47:48;5.68;;;3.30;;
11807;SDS011;5961;42.640;23.380;2023-08-06T09:50:17;3.50;;;3.20;;
11807;SDS011;5961;42.640;23.380;2023-08-06T09:52:45;3.65;;;3.30;;
11807;SDS011;5961;42.640;23.380;2023-08-06T09:55:13;3.10;;;2.83;;
11807;SDS011;5961;42.640;23.380;2023-08-06T09:57:40;3.10;;;2.80;;
11807;SDS011;5961;42.640;23.380;2023-08-06T10:00:08;3.33;;;3.13;;
11807;SDS011;5961;42.640;23.380;2023-08-06T10:02:37;3.28;;;2.88;;
11807;SDS011;5961;42.640;23.380;2023-08-06T10:05:04;3.40;;;2.70;;
11807;SDS011;5961;42.640;23.380;2023-08-06T10:07:32;4.43;;;3.10;;
11807;SDS011;5961;42.640;23.380;2023-08-06T10:10:00;3.35;;;3.05;;
11807;SDS011;5961;42.640;23.380;2023-08-06T10:12:28;2.92;;;2.65;;
11807;SDS011;5961;42.640;23.380;2023-08-06T10:14:59;3.58;;;3.10;;
11807;SDS011;5961;42.640;23.380;2023-08-06T10:17:27;4.10;;;2.88;;
11807;SDS011;5961;42.640;23.380;2023-08-06T10:19:55;3.50;;;2.95;;
11807;SDS011;5961;42.640;23.380;2023-08-06T10:22:22;4.32;;;3.13;;
11807;SDS011;5961;42.640;23.380;2023-08-06T10:24:51;3.08;;;2.78;;
11807;SDS011;5961;42.640;23.380;2023-08-06T10:27:22;3.10;;;2.80;;
11807;SDS011;5961;42.640;23.380;2023-08-06T10:29:54;3.38;;;2.60;;
11807;SDS011;5961;42.640;23.380;2023-08-06T10:32:21;2.92;;;2.72;;
11807;SDS011;5961;42.640;23.380;2023-08-06T10:34:54;3.67;;;3.28;;
11807;SDS011;5961;42.640;23.380;2023-08-06T10:37:22;3.80;;;3.35;;
11807;SDS011;5961;42.640;23.380;2023-08-06T10:39:51;3.08;;;2.85;;
11807;SDS011;5961;42.640;23.380;2023-08-06T10:42:22;3.30;;;3.00;;
11807;SDS011;5961;42.640;23.380;2023-08-06T10:45:11;4.30;;;2.80;;
11807;SDS011;5961;42.640;23.380;2023-08-06T10:47:38;3.15;;;2.72;;
11807;SDS011;5961;42.640;23.380;2023-08-06T10:50:06;3.30;;;2.85;;
11807;SDS011;5961;42.640;23.380;2023-08-06T10:52:33;4.82;;;3.00;;
11807;SDS011;5961;42.640;23.380;2023-08-06T10:55:01;4.13;;;2.70;;
11807;SDS011;5961;42.640;23.380;2023-08-06T10:57:28;4.60;;;2.42;;
11807;SDS011;5961;42.640;23.380;2023-08-06T10:59:55;3.80;;;2.70;;
11807;SDS011;5961;42.640;23.380;2023-08-06T11:02:21;3.20;;;2.65;;
11807;SDS011;5961;42.640;23.380;2023-08-06T11:04:48;3.53;;;3.00;;
11807;SDS011;5961;42.640;23.380;2023-08-06T11:07:15;4.22;;;2.90;;
11807;SDS011;5961;42.640;23.380;2023-08-06T11:09:42;5.32;;;2.97;;
11807;SDS011;5961;42.640;23.380;2023-08-06T11:12:10;4.00;;;2.72;;
11807;SDS011;5961;42.640;23.380;2023-08-06T11:14:37;4.10;;;2.83;;
11807;SDS011;5961;42.640;23.380;2023-08-06T11:17:04;3.63;;;3.13;;
11807;SDS011;5961;42.640;23.380;2023-08-06T11:19:31;3.72;;;2.75;;
11807;SDS011;5961;42.640;23.380;2023-08-06T11:21:58;4.35;;;2.75;;
11807;SDS011;5961;42.640;23.380;2023-08-06T11:24:26;2.97;;;2.60;;
11807;SDS011;5961;42.640;23.380;2023-08-06T11:26:53;3.95;;;3.17;;
11807;SDS011;5961;42.640;23.380;2023-08-06T11:29:21;3.70;;;3.40;;
11807;SDS011;5961;42.640;23.380;2023-08-06T11:31:49;2.53;;;2.33;;
11807;SDS011;5961;42.640;23.380;2023-08-06T11:34:16;4.07;;;2.70;;
11807;SDS011;5961;42.640;23.380;2023-08-06T11:36:43;3.38;;;2.65;;
11807;SDS011;5961;42.640;23.380;2023-08-06T11:39:09;3.65;;;2.72;;
11807;SDS011;5961;42.640;23.380;2023-08-06T11:41:36;3.25;;;2.78;;
11807;SDS011;5961;42.640;23.380;2023-08-06T11:44:04;3.80;;;2.92;;
11807;SDS011;5961;42.640;23.380;2023-08-06T11:49:18;3.35;;;2.90;;
11807;SDS011;5961;42.640;23.380;2023-08-06T11:51:47;4.18;;;3.40;;
11807;SDS011;5961;42.640;23.380;2023-08-06T11:54:13;4.25;;;3.13;;
11807;SDS011;5961;42.640;23.380;2023-08-06T11:56:40;3.90;;;3.50;;
11807;SDS011;5961;42.640;23.380;2023-08-06T11:59:08;4.18;;;3.63;;
11807;SDS011;5961;42.640;23.380;2023-08-06T12:01:35;4.65;;;3.25;;
11807;SDS011;5961;42.640;23.380;2023-08-06T12:04:05;4.32;;;3.55;;
11807;SDS011;5961;42.640;23.380;2023-08-06T12:06:41;6.68;;;3.65;;
11807;SDS011;5961;42.640;23.380;2023-08-06T12:09:08;3.75;;;3.45;;
11807;SDS011;5961;42.640;23.380;2023-08-06T12:11:35;5.55;;;3.90;;
11807;SDS011;5961;42.640;23.380;2023-08-06T12:14:02;3.70;;;3.40;;
11807;SDS011;5961;42.640;23.380;2023-08-06T12:16:28;5.57;;;4.18;;
11807;SDS011;5961;42.640;23.380;2023-08-06T12:18:55;4.70;;;3.90;;
11807;SDS011;5961;42.640;23.380;2023-08-06T12:21:23;3.75;;;3.40;;
11807;SDS011;5961;42.640;23.380;2023-08-06T12:23:50;4.18;;;3.78;;
11807;SDS011;5961;42.640;23.380;2023-08-06T12:26:16;4.63;;;4.22;;
11807;SDS011;5961;42.640;23.380;2023-08-06T12:28:43;4.40;;;4.00;;
11807;SDS011;5961;42.640;23.380;2023-08-06T12:31:10;4.47;;;4.07;;
11807;SDS011;5961;42.640;23.380;2023-08-06T12:33:36;6.35;;;4.45;;
11807;SDS011;5961;42.640;23.380;2023-08-06T12:36:03;6.55;;;4.38;;
11807;SDS011;5961;42.640;23.380;2023-08-06T12:38:31;4.93;;;4.50;;
11807;SDS011;5961;42.640;23.380;2023-08-06T12:40:58;4.82;;;4.38;;
11807;SDS011;5961;42.640;23.380;2023-08-06T12:43:25;7.75;;;5.10;;
11807;SDS011;5961;42.640;23.380;2023-08-06T12:45:52;5.63;;;4.60;;
11807;SDS011;5961;42.640;23.380;2023-08-06T12:48:18;5.00;;;4.47;;
11807;SDS011;5961;42.640;23.380;2023-08-06T12:50:45;6.03;;;4.68;;
11807;SDS011;5961;42.640;23.380;2023-08-06T12:53:12;5.35;;;4.60;;
11807;SDS011;5961;42.640;23.380;2023-08-06T12:55:40;7.50;;;4.43;;
11807;SDS011;5961;42.640;23.380;2023-08-06T12:58:08;6.30;;;4.60;;
11807;SDS011;5961;42.640;23.380;2023-08-06T13:00:35;8.55;;;5.10;;
11807;SDS011;5961;42.640;23.380;2023-08-06T13:03:02;6.07;;;5.00;;
11807;SDS011;5961;42.640;23.380;2023-08-06T13:05:29;4.80;;;4.40;;
11807;SDS011;5961;42.640;23.380;2023-08-06T13:07:56;4.80;;;4.40;;
11807;SDS011;5961;42.640;23.380;2023-08-06T13:10:22;5.03;;;4.53;;
11807;SDS011;5961;42.640;23.380;2023-08-06T13:12:51;4.80;;;4.35;;
11807;SDS011;5961;42.640;23.380;2023-08-06T13:15:17;6.10;;;4.20;;
11807;SDS011;5961;42.640;23.380;2023-08-06T13:17:46;5.05;;;4.32;;
11807;SDS011;5961;42.640;23.380;2023-08-06T13:20:12;5.53;;;5.03;;
11807;SDS011;5961;42.640;23.380;2023-08-06T13:22:39;5.70;;;5.18;;
11807;SDS011;5961;42.640;23.380;2023-08-06T13:25:06;5.50;;;4.90;;
11807;SDS011;5961;42.640;23.380;2023-08-06T13:27:33;5.15;;;4.63;;
11807;SDS011;5961;42.640;23.380;2023-08-06T13:30:01;5.28;;;4.85;;
11807;SDS011;5961;42.640;23.380;2023-08-06T13:32:28;6.30;;;5.22;;
11807;SDS011;5961;42.640;23.380;2023-08-06T13:34:54;5.45;;;4.57;;
11807;SDS011;5961;42.640;23.380;2023-08-06T13:37:21;5.00;;;4.60;;
11807;SDS011;5961;42.640;23.380;2023-08-06T13:39:48;5.43;;;4.80;;
11807;SDS011;5961;42.640;23.380;2023-08-06T13:42:14;5.22;;;4.55;;
11807;SDS011;5961;42.640;23.380;2023-08-06T13:44:41;4.95;;;4.45;;
11807;SDS011;5961;42.640;23.380;2023-08-06T13:47:09;4.97;;;4.57;;
11807;SDS011;5961;42.640;23.380;2023-08-06T13:49:36;6.82;;;4.82;;
11807;SDS011;5961;42.640;23.380;2023-08-06T13:52:03;5.32;;;4.80;;
11807;SDS011;5961;42.640;23.380;2023-08-06T13:54:30;4.93;;;4.53;;
11807;SDS011;5961;42.640;23.380;2023-08-06T13:56:56;6.10;;;4.97;;
11807;SDS011;5961;42.640;23.380;2023-08-06T13:59:23;6.57;;;4.50;;
11807;SDS011;5961;42.640;23.380;2023-08-06T14:01:50;5.10;;;4.60;;
11807;SDS011;5961;42.640;23.380;2023-08-06T14:04:19;6.65;;;4.40;;
11807;SDS011;5961;42.640;23.380;2023-08-06T14:06:46;6.22;;;4.47;;
11807;SDS011;5961;42.640;23.380;2023-08-06T14:09:13;5.28;;;4.35;;
11807;SDS011;5961;42.640;23.380;2023-08-06T14:11:43;5.05;;;4.55;;
11807;SDS011;5961;42.640;23.380;2023-08-06T14:14:10;5.82;;;4.35;;
11807;SDS011;5961;42.640;23.380;2023-08-06T14:16:37;4.63;;;4.22;;
11807;SDS011;5961;42.640;23.380;2023-08-06T14:19:04;6.63;;;4.30;;
11807;SDS011;5961;42.640;23.380;2023-08-06T14:21:32;8.65;;;4.40;;
11807;SDS011;5961;42.640;23.380;2023-08-06T14:23:58;4.85;;;4.15;;
11807;SDS011;5961;42.640;23.380;2023-08-06T14:26:25;5.72;;;4.53;;
11807;SDS011;5961;42.640;23.380;2023-08-06T14:28:51;5.00;;;4.07;;
11807;SDS011;5961;42.640;23.380;2023-08-06T14:31:19;7.07;;;4.70;;
11807;SDS011;5961;42.640;23.380;2023-08-06T14:33:46;6.38;;;4.60;;
11807;SDS011;5961;42.640;23.380;2023-08-06T14:36:12;5.15;;;4.55;;
11807;SDS011;5961;42.640;23.380;2023-08-06T14:38:40;5.38;;;3.53;;
11807;SDS011;5961;42.640;23.380;2023-08-06T14:41:07;5.22;;;4.20;;
11807;SDS011;5961;42.640;23.380;2023-08-06T14:43:34;6.25;;;4.05;;
11807;SDS011;5961;42.640;23.380;2023-08-06T14:46:00;4.68;;;3.60;;
11807;SDS011;5961;42.640;23.380;2023-08-06T14:48:27;4.15;;;3.75;;
11807;SDS011;5961;42.640;23.380;2023-08-06T14:50:54;5.15;;;4.47;;
11807;SDS011;5961;42.640;23.380;2023-08-06T14:53:21;5.78;;;5.00;;